Time;durP1;ratioP1;P1;durP2;ratioP2;P2;SDS_P1;SDS_P2;PMS_P1;PMS_P2;Temp;Humidity;BMP_temperature;BMP_pressure;BME280_temperature;BME280_humidity;BME280_pressure;Samples;Min_cycle;Max_cycle;Signal;HPM_P1;HPM_P2
2023/03/31 00:01:11;;;;;;;;;;;;;;;9.42;100.00;97228.22;5123669;27;19915;-78
2023/03/31 00:03:42;;;;;;;;;;;;;;;9.34;100.00;97229.31;5090432;28;20280;-79
2023/03/31 00:06:16;;;;;;;;;;;;;;;9.38;100.00;97225.19;5092541;28;19999;-78
2023/03/31 00:08:50;;;;;;;;;;;;;;;9.43;100.00;97221.91;5084891;28;20315;-78
2023/03/31 00:11:20;;;;;;;;;;;;;;;9.44;100.00;97220.91;5029662;28;19916;-79
2023/03/31 00:13:50;;;;;;;;;;;;;;;9.36;100.00;97221.19;5082020;28;20356;-78
2023/03/31 00:16:20;;;;;;;;;;;;;;;9.38;100.00;97227.06;5101084;28;19920;-79
2023/03/31 00:18:50;;;;;;;;;;;;;;;9.33;100.00;97222.44;5097411;28;20015;-79
2023/03/31 00:21:28;;;;;;;;;;;;;;;9.36;100.00;97219.38;5089727;28;20292;-79
2023/03/31 00:23:59;;;;;;;;;;;;;;;9.33;100.00;97216.34;5089229;28;19916;-78
2023/03/31 00:26:28;;;;;;;;;;;;;;;9.41;100.00;97221.34;5104218;28;20338;-78
2023/03/31 00:28:56;;;;;;;;;;;;;;;9.43;100.00;97222.72;5065238;28;19927;-79
2023/03/31 00:31:25;;;;;;;;;;;;;;;9.47;100.00;97217.03;5087469;28;20352;-79
2023/03/31 00:33:54;;;;;;;;;;;;;;;9.47;100.00;97224.94;5088778;28;19943;-79
2023/03/31 00:36:27;;;;;;;;;;;;;;;9.46;100.00;97221.47;5097612;28;19927;-79
2023/03/31 00:38:58;;;;;;;;;;;;;;;9.42;100.00;97218.50;5094982;28;19919;-78
2023/03/31 00:41:29;;;;;;;;;;;;;;;9.43;100.00;97216.66;5097305;28;20006;-78
2023/03/31 00:44:07;;;;;;;;;;;;;;;9.40;100.00;97211.81;5109273;28;20006;-78
2023/03/31 00:46:49;;;;;;;;;;;;;;;9.42;100.00;97207.94;5079260;28;20015;-79
2023/03/31 00:49:23;;;;;;;;;;;;;;;9.40;100.00;97206.53;5091784;28;19916;-78
2023/03/31 00:51:54;;;;;;;;;;;;;;;9.37;100.00;97217.50;5085540;28;19923;-78
2023/03/31 00:54:26;;;;;;;;;;;;;;;9.36;100.00;97205.38;5105464;27;19931;-78
2023/03/31 00:56:57;;;;;;;;;;;;;;;9.35;100.00;97211.69;5093510;28;19950;-79
2023/03/31 00:59:28;;;;;;;;;;;;;;;9.33;100.00;97203.97;5076592;28;20284;-79
2023/03/31 01:02:01;;;;;;;;;;;;;;;9.34;100.00;97207.41;5075197;28;19938;-78
2023/03/31 01:04:43;;;;;;;;;;;;;;;9.33;100.00;97201.34;5086497;28;19972;-78
2023/03/31 01:07:16;;;;;;;;;;;;;;;9.33;100.00;97211.88;5107277;28;19920;-78
2023/03/31 01:09:46;;;;;;;;;;;;;;;9.31;100.00;97219.19;5071337;28;19927;-78
2023/03/31 01:12:18;;;;;;;;;;;;;;;9.30;100.00;97215.75;5088170;28;19920;-78
2023/03/31 01:14:50;;;;;;;;;;;;;;;9.30;100.00;97209.69;5085938;28;20391;-78
2023/03/31 01:17:21;;;;;;;;;;;;;;;9.28;100.00;97209.09;5100341;28;20018;-78
2023/03/31 01:20:18;;;;;;;;;;;;;;;9.29;100.00;97215.97;5102787;28;20007;-79
2023/03/31 01:22:49;;;;;;;;;;;;;;;9.27;100.00;97210.91;5060241;28;19961;-78
2023/03/31 01:25:37;;;;;;;;;;;;;;;9.24;100.00;97207.88;5083576;28;19920;-78
2023/03/31 01:28:26;;;;;;;;;;;;;;;9.17;100.00;97203.47;5102076;28;20387;-78
2023/03/31 01:31:01;;;;;;;;;;;;;;;9.14;100.00;97205.75;5095480;28;20305;-78
2023/03/31 01:33:34;;;;;;;;;;;;;;;9.13;100.00;97204.13;5092532;28;20020;-78
2023/03/31 01:36:05;;;;;;;;;;;;;;;9.10;100.00;97208.00;5081983;28;19926;-78
2023/03/31 01:38:56;;;;;;;;;;;;;;;9.12;100.00;97207.81;5100598;28;20364;-78
2023/03/31 01:41:44;;;;;;;;;;;;;;;9.13;100.00;97212.84;5095044;28;19923;-78
2023/03/31 01:44:26;;;;;;;;;;;;;;;9.11;100.00;97206.19;5078563;28;19916;-78
2023/03/31 01:47:02;;;;;;;;;;;;;;;9.07;100.00;97213.72;5083039;28;19974;-78
2023/03/31 01:49:40;;;;;;;;;;;;;;;9.05;100.00;97216.56;5101341;28;19924;-78
2023/03/31 01:52:10;;;;;;;;;;;;;;;9.05;100.00;97219.19;5089320;28;19922;-78
2023/03/31 01:54:49;;;;;;;;;;;;;;;9.06;100.00;97220.00;5100962;28;20014;-78
2023/03/31 01:57:21;;;;;;;;;;;;;;;9.06;100.00;97217.38;5103875;28;19962;-78
2023/03/31 01:59:54;;;;;;;;;;;;;;;9.05;100.00;97224.47;5104766;28;19986;-78
2023/03/31 02:02:31;;;;;;;;;;;;;;;9.02;100.00;97226.72;5076910;28;20399;-78
2023/03/31 02:05:04;;;;;;;;;;;;;;;9.02;100.00;97221.44;5088109;28;19920;-78
2023/03/31 02:07:54;;;;;;;;;;;;;;;9.01;100.00;97222.47;5116590;28;19975;-78
2023/03/31 02:10:27;;;;;;;;;;;;;;;8.97;100.00;97222.09;5101836;28;20386;-79
2023/03/31 02:13:01;;;;;;;;;;;;;;;8.97;100.00;97227.34;5118879;28;20368;-78
2023/03/31 02:15:37;;;;;;;;;;;;;;;8.98;100.00;97241.34;5107824;28;19923;-79
2023/03/31 02:18:10;;;;;;;;;;;;;;;8.96;100.00;97233.66;5089741;28;19916;-78
2023/03/31 02:20:42;;;;;;;;;;;;;;;8.98;100.00;97242.13;5090646;28;19922;-78
2023/03/31 02:23:13;;;;;;;;;;;;;;;8.99;100.00;97235.88;5078775;28;20308;-78
2023/03/31 02:25:54;;;;;;;;;;;;;;;9.00;100.00;97234.84;5121876;28;19927;-78
2023/03/31 02:28:23;;;;;;;;;;;;;;;8.98;100.00;97244.75;5091131;28;20010;-78
2023/03/31 02:31:00;;;;;;;;;;;;;;;9.01;100.00;97244.38;5130742;28;19915;-78
2023/03/31 02:33:28;;;;;;;;;;;;;;;9.03;100.00;97247.56;5110068;28;19920;-78
2023/03/31 02:35:56;;;;;;;;;;;;;;;9.02;100.00;97245.16;5110146;28;19927;-78
2023/03/31 02:38:24;;;;;;;;;;;;;;;9.02;100.00;97245.97;5082304;28;19968;-78
2023/03/31 02:40:51;;;;;;;;;;;;;;;9.03;100.00;97244.94;5091715;27;20558;-78
2023/03/31 02:43:19;;;;;;;;;;;;;;;9.05;100.00;97248.19;5103141;28;19937;-78
2023/03/31 02:45:49;;;;;;;;;;;;;;;9.06;100.00;97246.34;5080572;27;19922;-78
2023/03/31 02:48:23;;;;;;;;;;;;;;;9.06;100.00;97251.63;5096009;27;19963;-78
2023/03/31 02:50:51;;;;;;;;;;;;;;;9.05;100.00;97250.81;5120663;27;20395;-78
2023/03/31 02:53:36;;;;;;;;;;;;;;;9.08;100.00;97254.84;5095671;27;19922;-78
2023/03/31 02:56:26;;;;;;;;;;;;;;;9.07;100.00;97261.13;5103937;27;19927;-78
2023/03/31 02:59:13;;;;;;;;;;;;;;;9.09;100.00;97258.28;5052636;27;19931;-78
2023/03/31 03:02:00;;;;;;;;;;;;;;;9.07;100.00;97269.03;5097354;27;19915;-78
2023/03/31 03:04:48;;;;;;;;;;;;;;;9.06;100.00;97273.50;5051267;27;20496;-77
2023/03/31 03:07:32;;;;;;;;;;;;;;;9.06;100.00;97265.59;5101183;27;20344;-78
2023/03/31 03:10:05;;;;;;;;;;;;;;;9.06;100.00;97281.41;5105202;27;19924;-78
2023/03/31 03:12:39;;;;;;;;;;;;;;;9.09;100.00;97284.63;5097029;27;19915;-78
2023/03/31 03:15:14;;;;;;;;;;;;;;;9.09;100.00;97284.63;5108348;27;19919;-78
2023/03/31 03:17:46;;;;;;;;;;;;;;;9.09;100.00;97282.00;5111475;27;19938;-78
2023/03/31 03:20:16;;;;;;;;;;;;;;;9.09;100.00;97289.91;5108354;28;19931;-78
2023/03/31 03:22:46;;;;;;;;;;;;;;;9.09;100.00;97289.91;5124634;27;19958;-78
2023/03/31 03:25:19;;;;;;;;;;;;;;;9.11;100.00;97287.88;5128556;27;19959;-78
2023/03/31 03:27:47;;;;;;;;;;;;;;;9.11;100.00;97283.38;5109541;27;20808;-78
2023/03/31 03:30:14;;;;;;;;;;;;;;;9.13;100.00;97291.09;5099525;27;20039;-78
2023/03/31 03:32:42;;;;;;;;;;;;;;;9.12;100.00;97289.47;5107320;27;20291;-78
2023/03/31 03:35:12;;;;;;;;;;;;;;;9.13;100.00;97293.72;5130147;27;20013;-78
2023/03/31 03:37:40;;;;;;;;;;;;;;;9.12;100.00;97290.28;5111266;27;19920;-78
2023/03/31 03:40:09;;;;;;;;;;;;;;;9.12;100.00;97295.56;5094423;27;19922;-78
2023/03/31 03:42:37;;;;;;;;;;;;;;;9.11;100.00;97299.19;5121246;27;20523;-75
2023/03/31 03:45:05;;;;;;;;;;;;;;;9.09;100.00;97296.00;5108169;27;20801;-76
2023/03/31 03:47:33;;;;;;;;;;;;;;;9.12;100.00;97302.66;5125116;27;20010;-78
2023/03/31 03:50:00;;;;;;;;;;;;;;;9.12;100.00;97305.28;5110554;27;19966;-78
2023/03/31 03:52:30;;;;;;;;;;;;;;;9.13;100.00;97304.25;5107895;27;20399;-78
2023/03/31 03:55:00;;;;;;;;;;;;;;;9.13;100.00;97306.88;5125174;27;19924;-78
2023/03/31 03:57:30;;;;;;;;;;;;;;;9.16;100.00;97314.38;5104054;27;19925;-78
2023/03/31 03:59:58;;;;;;;;;;;;;;;9.14;100.00;97314.59;5122117;27;19943;-78
2023/03/31 04:02:27;;;;;;;;;;;;;;;9.13;100.00;97322.69;5114275;27;19985;-78
2023/03/31 04:04:55;;;;;;;;;;;;;;;9.13;100.00;97320.06;5123149;27;19923;-78
2023/03/31 04:07:22;;;;;;;;;;;;;;;9.12;100.00;97321.09;5075583;28;20375;-78
2023/03/31 04:09:50;;;;;;;;;;;;;;;9.13;100.00;97323.53;5102721;27;19919;-78
2023/03/31 04:12:17;;;;;;;;;;;;;;;9.15;100.00;97328.56;5127104;27;20026;-78
2023/03/31 04:14:47;;;;;;;;;;;;;;;9.15;100.00;97332.03;5128212;27;19923;-78
2023/03/31 04:17:17;;;;;;;;;;;;;;;9.14;100.00;97330.41;5087726;28;19926;-78
2023/03/31 04:19:49;;;;;;;;;;;;;;;9.14;100.00;97330.41;5106969;27;19924;-78
2023/03/31 04:22:19;;;;;;;;;;;;;;;9.15;100.00;97336.47;5096736;28;20346;-78
2023/03/31 04:24:51;;;;;;;;;;;;;;;9.15;100.00;97342.56;5106143;27;19965;-78
2023/03/31 04:27:21;;;;;;;;;;;;;;;9.17;100.00;97342.34;5112233;27;20000;-78
2023/03/31 04:29:53;;;;;;;;;;;;;;;9.14;100.00;97345.41;5098794;27;19920;-78
2023/03/31 04:32:21;;;;;;;;;;;;;;;9.14;100.00;97353.31;5081767;27;19916;-79
2023/03/31 04:35:01;;;;;;;;;;;;;;;9.11;100.00;97344.00;5122746;27;19924;-78
2023/03/31 04:37:33;;;;;;;;;;;;;;;9.13;100.00;97356.94;5102836;27;20380;-78
2023/03/31 04:40:07;;;;;;;;;;;;;;;9.15;100.00;97357.56;5111502;27;19919;-78
2023/03/31 04:42:36;;;;;;;;;;;;;;;9.17;100.00;97363.44;5126385;27;19919;-78
2023/03/31 04:45:05;;;;;;;;;;;;;;;9.17;100.00;97373.97;5129138;27;19926;-78
2023/03/31 04:47:33;;;;;;;;;;;;;;;9.18;100.00;97378.22;5108704;27;20010;-79
2023/03/31 04:50:02;;;;;;;;;;;;;;;9.17;100.00;97382.66;5108275;27;19920;-78
2023/03/31 04:52:31;;;;;;;;;;;;;;;9.18;100.00;97388.75;5102444;28;19926;-78
2023/03/31 04:54:58;;;;;;;;;;;;;;;9.18;100.00;97391.38;5108210;28;20400;-78
2023/03/31 04:57:27;;;;;;;;;;;;;;;9.22;100.00;97394.44;5090879;28;19916;-78
2023/03/31 04:59:54;;;;;;;;;;;;;;;9.23;100.00;97398.66;5087130;27;19915;-78
2023/03/31 05:02:23;;;;;;;;;;;;;;;9.23;100.00;97402.13;5110443;28;20056;-79
2023/03/31 05:04:51;;;;;;;;;;;;;;;9.26;100.00;97412.22;5106799;28;19923;-78
2023/03/31 05:07:19;;;;;;;;;;;;;;;9.26;100.00;97409.59;5081944;28;19916;-78
2023/03/31 05:09:47;;;;;;;;;;;;;;;9.29;100.00;97419.72;5104955;28;19920;-78
2023/03/31 05:12:14;;;;;;;;;;;;;;;9.33;100.00;97412.22;5107106;28;20637;-78
2023/03/31 05:14:42;;;;;;;;;;;;;;;9.35;100.00;97425.19;5109107;28;19931;-78
2023/03/31 05:17:10;;;;;;;;;;;;;;;9.36;100.00;97429.41;5105578;28;19924;-79
2023/03/31 05:19:38;;;;;;;;;;;;;;;9.38;100.00;97424.75;5088495;28;20322;-79
2023/03/31 05:22:06;;;;;;;;;;;;;;;9.40;100.00;97435.88;5102874;28;19915;-79
2023/03/31 05:24:34;;;;;;;;;;;;;;;9.41;100.00;97429.59;5109161;28;20015;-78
2023/03/31 05:27:04;;;;;;;;;;;;;;;9.42;100.00;97442.56;5088075;28;19923;-78
2023/03/31 05:29:33;;;;;;;;;;;;;;;9.43;100.00;97449.44;5085320;28;19920;-78
2023/03/31 05:32:03;;;;;;;;;;;;;;;9.46;100.00;97447.41;5087653;28;19920;-78
2023/03/31 05:34:33;;;;;;;;;;;;;;;9.48;100.00;97456.72;5104855;28;19981;-78
2023/03/31 05:37:03;;;;;;;;;;;;;;;9.51;100.00;97461.56;5101511;28;19923;-78
2023/03/31 05:39:32;;;;;;;;;;;;;;;9.54;100.00;97466.41;5090264;28;19927;-78
2023/03/31 05:42:02;;;;;;;;;;;;;;;9.56;100.00;97476.75;5083282;28;19916;-78
2023/03/31 05:44:29;;;;;;;;;;;;;;;9.57;100.00;97473.13;5105369;28;19922;-78
2023/03/31 05:46:59;;;;;;;;;;;;;;;9.56;100.00;97482.03;5086619;28;19916;-78
2023/03/31 05:49:29;;;;;;;;;;;;;;;9.58;100.00;97489.72;5086123;28;20015;-78
2023/03/31 05:51:56;;;;;;;;;;;;;;;9.60;100.00;97495.59;5105860;28;19927;-78
2023/03/31 05:54:26;;;;;;;;;;;;;;;9.59;100.00;97500.06;5108024;28;20024;-79
2023/03/31 05:56:53;;;;;;;;;;;;;;;9.61;100.00;97494.56;5100456;28;19916;-78
2023/03/31 05:59:21;;;;;;;;;;;;;;;9.60;100.00;97509.63;5104828;28;19943;-78
2023/03/31 06:01:48;;;;;;;;;;;;;;;9.60;100.00;97514.06;5099453;28;19964;-78
2023/03/31 06:04:16;;;;;;;;;;;;;;;9.60;100.00;97527.25;5105287;28;19959;-78
2023/03/31 06:06:49;;;;;;;;;;;;;;;9.60;100.00;97530.72;5122511;28;20013;-78
2023/03/31 06:09:17;;;;;;;;;;;;;;;9.60;100.00;97527.25;5108993;28;20004;-79
2023/03/31 06:11:47;;;;;;;;;;;;;;;9.58;100.00;97535.38;5125472;28;19919;-78
2023/03/31 06:14:17;;;;;;;;;;;;;;;9.60;100.00;97537.81;5096723;27;19972;-78
2023/03/31 06:16:47;;;;;;;;;;;;;;;9.62;100.00;97544.47;5095499;27;19924;-78
2023/03/31 06:19:16;;;;;;;;;;;;;;;9.64;100.00;97547.72;5124516;27;19975;-78
2023/03/31 06:21:45;;;;;;;;;;;;;;;9.65;100.00;97554.59;5080392;27;19919;-78
2023/03/31 06:24:13;;;;;;;;;;;;;;;9.67;100.00;97557.03;5097894;27;20289;-78
2023/03/31 06:26:40;;;;;;;;;;;;;;;9.68;100.00;97556.81;5126373;27;19916;-78
2023/03/31 06:29:08;;;;;;;;;;;;;;;9.74;100.00;97563.09;5089362;27;19920;-78
2023/03/31 06:31:36;;;;;;;;;;;;;;;9.77;100.00;97565.31;5091470;28;19916;-78
2023/03/31 06:34:03;;;;;;;;;;;;;;;9.83;100.00;97573.38;5113508;27;20472;-78
2023/03/31 06:36:31;;;;;;;;;;;;;;;9.82;100.00;97575.22;5111671;27;20010;-78
2023/03/31 06:38:58;;;;;;;;;;;;;;;9.81;100.00;97581.50;5109862;27;19915;-78
2023/03/31 06:41:26;;;;;;;;;;;;;;;9.79;100.00;97584.34;5125984;27;19919;-78
2023/03/31 06:43:54;;;;;;;;;;;;;;;9.75;100.00;97596.34;5109316;27;19927;-78
2023/03/31 06:46:22;;;;;;;;;;;;;;;9.73;100.00;97595.75;5106139;27;20006;-78
2023/03/31 06:48:49;;;;;;;;;;;;;;;9.72;100.00;97603.88;5106759;27;19930;-79
2023/03/31 06:51:17;;;;;;;;;;;;;;;9.88;100.00;97602.59;5096185;27;19922;-78
2023/03/31 06:53:44;;;;;;;;;;;;;;;10.08;100.00;97602.47;5124791;27;19919;-79
2023/03/31 06:56:12;;;;;;;;;;;;;;;10.23;100.00;97615.41;5110206;28;19972;-79
2023/03/31 06:58:40;;;;;;;;;;;;;;;10.18;100.00;97616.03;5127663;27;19975;-78
2023/03/31 07:01:07;;;;;;;;;;;;;;;10.25;100.00;97629.22;5121142;27;19915;-79
2023/03/31 07:03:35;;;;;;;;;;;;;;;10.15;100.00;97624.38;5104130;28;20299;-78
2023/03/31 07:06:04;;;;;;;;;;;;;;;9.94;100.00;97633.41;5102537;28;19922;-78
2023/03/31 07:08:32;;;;;;;;;;;;;;;9.85;100.00;97639.94;5091156;28;19920;-78
2023/03/31 07:11:00;;;;;;;;;;;;;;;9.82;100.00;97643.00;5102305;28;19924;-78
2023/03/31 07:13:28;;;;;;;;;;;;;;;9.82;100.00;97651.72;5104608;28;19955;-78
2023/03/31 07:15:56;;;;;;;;;;;;;;;9.80;100.00;97651.13;5102412;28;19966;-79
2023/03/31 07:18:25;;;;;;;;;;;;;;;9.81;100.00;97655.38;5103363;28;20003;-78
2023/03/31 07:20:54;;;;;;;;;;;;;;;9.83;100.00;97660.44;5093675;28;19915;-78
2023/03/31 07:23:23;;;;;;;;;;;;;;;9.86;100.00;97667.97;5088200;28;19923;-79
2023/03/31 07:25:50;;;;;;;;;;;;;;;9.87;100.00;97673.03;5104754;28;19920;-78
2023/03/31 07:28:19;;;;;;;;;;;;;;;9.91;100.00;97674.22;5067337;28;19998;-79
2023/03/31 07:30:47;;;;;;;;;;;;;;;9.92;100.00;97675.03;5106642;28;19968;-78
2023/03/31 07:33:15;;;;;;;;;;;;;;;9.93;100.00;97681.94;5105628;28;19915;-79
2023/03/31 07:35:42;;;;;;;;;;;;;;;9.94;100.00;97691.44;5098412;28;19924;-79
2023/03/31 07:38:11;;;;;;;;;;;;;;;9.94;100.00;97691.44;5103118;28;19920;-79
2023/03/31 07:40:38;;;;;;;;;;;;;;;9.95;100.00;97701.00;5095366;28;19919;-78
2023/03/31 07:43:06;;;;;;;;;;;;;;;9.97;100.00;97704.22;5107526;28;19922;-78
2023/03/31 07:45:34;;;;;;;;;;;;;;;9.99;100.00;97710.13;5086427;28;19916;-79
2023/03/31 07:48:03;;;;;;;;;;;;;;;10.03;100.00;97711.31;5088160;28;20003;-78
2023/03/31 07:50:31;;;;;;;;;;;;;;;10.03;100.00;97713.16;5100724;28;19920;-79
2023/03/31 07:53:00;;;;;;;;;;;;;;;10.06;100.00;97712.75;5103641;28;19920;-79
2023/03/31 07:55:28;;;;;;;;;;;;;;;10.05;100.00;97719.03;5074119;28;20392;-79
2023/03/31 07:57:58;;;;;;;;;;;;;;;10.08;100.00;97725.72;5088883;28;19923;-78
2023/03/31 08:00:28;;;;;;;;;;;;;;;10.11;100.00;97728.78;5100688;28;20014;-78
2023/03/31 08:02:57;;;;;;;;;;;;;;;10.14;100.00;97736.28;5108004;28;19915;-78
2023/03/31 08:05:27;;;;;;;;;;;;;;;10.14;100.00;97740.72;5092784;27;19926;-79
2023/03/31 08:07:57;;;;;;;;;;;;;;;10.12;100.00;97746.22;5103847;27;19919;-79
2023/03/31 08:10:26;;;;;;;;;;;;;;;10.16;100.00;97749.25;5110238;27;19919;-79
2023/03/31 08:12:54;;;;;;;;;;;;;;;10.18;100.00;97755.13;5088843;28;20459;-79
2023/03/31 08:15:23;;;;;;;;;;;;;;;10.20;100.00;97761.00;5100945;27;20402;-79
2023/03/31 08:17:51;;;;;;;;;;;;;;;10.18;100.00;97763.84;5104402;27;19919;-79
2023/03/31 08:20:18;;;;;;;;;;;;;;;10.18;100.00;97765.69;5109132;27;19919;-79
2023/03/31 08:22:46;;;;;;;;;;;;;;;10.14;100.00;97769.75;5111002;27;19919;-79
2023/03/31 08:25:14;;;;;;;;;;;;;;;10.12;100.00;97772.59;5118206;27;20402;-79
2023/03/31 08:27:41;;;;;;;;;;;;;;;10.12;100.00;97779.72;5104363;27;19947;-79
2023/03/31 08:30:10;;;;;;;;;;;;;;;10.04;100.00;97776.28;5100241;27;20307;-78
2023/03/31 08:32:38;;;;;;;;;;;;;;;10.06;100.00;97784.00;5078816;27;19916;-78
2023/03/31 08:35:06;;;;;;;;;;;;;;;10.05;100.00;97788.47;5119558;27;19924;-79
2023/03/31 08:37:34;;;;;;;;;;;;;;;10.04;100.00;97788.66;5102547;28;19919;-79
2023/03/31 08:40:10;;;;;;;;;;;;;;;10.01;100.00;97797.81;5105927;28;20014;-79
2023/03/31 08:42:37;;;;;;;;;;;;;;;10.02;100.00;97793.31;5121664;27;19926;-78
2023/03/31 08:45:13;;;;;;;;;;;;;;;10.00;100.00;97796.16;5074786;28;19919;-79
2023/03/31 08:47:41;;;;;;;;;;;;;;;10.02;100.00;97804.69;5104420;27;20367;-78
2023/03/31 08:50:14;;;;;;;;;;;;;;;10.05;100.00;97809.56;5111782;27;20374;-78
2023/03/31 08:52:50;;;;;;;;;;;;;;;10.03;100.00;97808.94;5100405;27;19916;-79
2023/03/31 08:55:24;;;;;;;;;;;;;;;10.06;100.00;97815.66;5125711;27;19924;-78
2023/03/31 08:57:54;;;;;;;;;;;;;;;10.07;100.00;97821.75;5099459;27;20383;-78
2023/03/31 09:00:23;;;;;;;;;;;;;;;10.10;100.00;97831.88;5112129;27;19959;-78
2023/03/31 09:02:55;;;;;;;;;;;;;;;10.13;100.00;97831.50;5100440;27;19919;-78
2023/03/31 09:05:57;;;;;;;;;;;;;;;10.11;100.00;97842.25;5087815;28;19920;-79
2023/03/31 09:08:37;;;;;;;;;;;;;;;10.07;100.00;97840.22;5059974;28;20325;-78
2023/03/31 09:11:11;;;;;;;;;;;;;;;10.01;100.00;97845.31;5062228;28;20347;-78
2023/03/31 09:13:55;;;;;;;;;;;;;;;10.01;100.00;97845.31;5086359;28;20311;-79
2023/03/31 09:16:31;;;;;;;;;;;;;;;9.99;100.00;97854.44;5067833;28;20299;-78
2023/03/31 09:19:01;;;;;;;;;;;;;;;9.99;100.00;97855.25;5089312;28;19920;-78
2023/03/31 09:21:34;;;;;;;;;;;;;;;10.00;100.00;97862.16;5082836;28;19927;-78
2023/03/31 09:24:19;;;;;;;;;;;;;;;10.03;100.00;97860.94;5085700;28;19923;-78
2023/03/31 09:27:07;;;;;;;;;;;;;;;10.08;100.00;97866.41;5080780;28;19916;-78
2023/03/31 09:29:37;;;;;;;;;;;;;;;10.15;100.00;97874.31;5087552;28;20007;-79
2023/03/31 09:32:14;;;;;;;;;;;;;;;10.21;100.00;97876.13;5100851;28;20014;-79
2023/03/31 09:34:45;;;;;;;;;;;;;;;10.22;100.00;97883.06;5102989;28;19926;-79
2023/03/31 09:37:15;;;;;;;;;;;;;;;10.21;100.00;97891.97;5102229;28;20376;-79
2023/03/31 09:39:44;;;;;;;;;;;;;;;10.25;100.00;97887.09;5078067;28;19916;-79
2023/03/31 09:42:15;;;;;;;;;;;;;;;10.35;100.00;97891.97;5083988;28;19917;-78
2023/03/31 09:44:49;;;;;;;;;;;;;;;10.45;100.00;97900.25;5098839;28;20063;-79
2023/03/31 09:47:21;;;;;;;;;;;;;;;10.42;100.00;97895.38;5071240;28;19916;-78
2023/03/31 09:49:51;;;;;;;;;;;;;;;10.41;100.00;97907.81;5091164;28;19955;-79
2023/03/31 09:52:18;;;;;;;;;;;;;;;10.40;100.00;97911.44;5083673;28;20014;-79
2023/03/31 09:54:51;;;;;;;;;;;;;;;10.38;100.00;97916.09;5088566;28;20412;-79
2023/03/31 09:57:28;;;;;;;;;;;;;;;10.42;100.00;97921.78;5072438;28;19973;-79
2023/03/31 10:00:17;;;;;;;;;;;;;;;10.43;100.00;97918.94;5074207;28;20264;-79
2023/03/31 10:02:53;;;;;;;;;;;;;;;10.43;100.00;97924.22;5087661;28;20300;-79
2023/03/31 10:05:23;;;;;;;;;;;;;;;10.44;100.00;97930.34;5102271;27;19928;-79
2023/03/31 10:07:53;;;;;;;;;;;;;;;10.50;100.00;97940.09;5106681;28;19955;-78
2023/03/31 10:10:32;;;;;;;;;;;;;;;10.58;100.00;97943.53;5075599;28;19965;-79
2023/03/31 10:13:03;;;;;;;;;;;;;;;10.66;100.00;97945.97;5075428;28;19965;-79
2023/03/31 10:15:37;;;;;;;;;;;;;;;10.68;100.00;97957.13;5077391;28;19943;-79
2023/03/31 10:18:05;;;;;;;;;;;;;;;10.67;100.00;97956.31;5087671;28;19924;-79
2023/03/31 10:20:38;;;;;;;;;;;;;;;10.70;100.00;97957.75;5091752;28;19923;-78
2023/03/31 10:23:37;;;;;;;;;;;;;;;10.69;100.00;97958.75;5089468;28;19916;-79
2023/03/31 10:26:06;;;;;;;;;;;;;;;10.70;100.00;97968.31;5076891;28;19923;-78
2023/03/31 10:28:36;;;;;;;;;;;;;;;10.70;100.00;97973.59;5078649;28;19927;-79
2023/03/31 10:31:04;;;;;;;;;;;;;;;10.73;100.00;97975.00;5082501;28;20283;-79
2023/03/31 10:33:39;;;;;;;;;;;;;;;10.77;100.00;97984.97;5065088;28;20284;-79
2023/03/31 10:36:15;;;;;;;;;;;;;;;10.82;100.00;97991.44;5082106;28;20384;-79
2023/03/31 10:38:48;;;;;;;;;;;;;;;10.83;100.00;98003.66;5091643;28;19920;-79
2023/03/31 10:41:19;;;;;;;;;;;;;;;10.82;100.00;97994.91;5088883;28;19950;-78
2023/03/31 10:43:51;;;;;;;;;;;;;;;10.85;100.00;98001.59;5090895;28;19919;-78
2023/03/31 10:46:21;;;;;;;;;;;;;;;10.86;100.00;98003.25;5074065;28;19955;-79
2023/03/31 10:48:51;;;;;;;;;;;;;;;10.84;100.00;98013.19;5072901;28;20283;-78
2023/03/31 10:51:26;;;;;;;;;;;;;;;10.85;100.00;98014.81;5060431;28;19920;-78
2023/03/31 10:54:02;;;;;;;;;;;;;;;10.78;100.00;98020.13;5070485;28;20368;-79
2023/03/31 10:56:38;;;;;;;;;;;;;;;10.69;100.00;98021.38;5092492;28;19981;-78
2023/03/31 10:59:22;;;;;;;;;;;;;;;10.62;100.00;98024.78;5049668;28;19916;-79
2023/03/31 11:01:51;;;;;;;;;;;;;;;10.61;100.00;98025.81;5085779;28;19926;-79
2023/03/31 11:04:24;;;;;;;;;;;;;;;10.64;100.00;98035.16;5072287;27;19970;-79
2023/03/31 11:07:04;;;;;;;;;;;;;;;10.67;100.00;98034.78;5087258;27;19920;-78
2023/03/31 11:10:12;;;;;;;;;;;;;;;10.77;100.00;98052.84;5051133;27;19970;-79
2023/03/31 11:13:05;;;;;;;;;;;;;;;10.84;100.00;98061.59;5004519;28;19954;-78
2023/03/31 11:15:51;;;;;;;;;;;;;;;10.80;100.00;98060.34;5016795;28;20672;-79
2023/03/31 11:18:33;;;;;;;;;;;;;;;10.67;100.00;98062.00;5061785;28;20402;-78
2023/03/31 11:21:19;;;;;;;;;;;;;;;10.58;100.00;98075.59;5082996;27;19924;-78
2023/03/31 11:24:00;;;;;;;;;;;;;;;10.47;100.00;98069.91;5129536;27;19919;-78
2023/03/31 11:26:49;;;;;;;;;;;;;;;10.43;100.00;98074.75;5066360;28;20299;-78
2023/03/31 11:29:18;;;;;;;;;;;;;;;10.39;100.00;98084.09;5081460;27;19921;-78
2023/03/31 11:32:00;;;;;;;;;;;;;;;10.29;100.00;98083.69;5097301;28;19923;-78
2023/03/31 11:34:43;;;;;;;;;;;;;;;10.27;100.00;98091.78;5087840;27;20368;-78
2023/03/31 11:37:20;;;;;;;;;;;;;;;10.17;100.00;98094.03;5071101;28;20387;-78
2023/03/31 11:39:48;;;;;;;;;;;;;;;10.20;100.00;98100.72;5112552;28;19922;-78
2023/03/31 11:42:45;;;;;;;;;;;;;;;10.22;100.00;98112.72;5072664;28;19998;-78
2023/03/31 11:45:19;;;;;;;;;;;;;;;10.17;100.00;98117.78;5051778;28;19972;-79
2023/03/31 11:47:52;;;;;;;;;;;;;;;10.12;100.00;98114.91;5090201;28;19939;-79
2023/03/31 11:50:23;;;;;;;;;;;;;;;10.12;100.00;98125.47;5102485;28;19995;-79
2023/03/31 11:52:58;;;;;;;;;;;;;;;10.16;100.00;98129.38;5089615;28;20360;-78
2023/03/31 11:55:30;;;;;;;;;;;;;;;10.22;100.00;98140.94;5092687;28;19920;-79
2023/03/31 11:58:04;;;;;;;;;;;;;;;10.27;100.00;98143.81;5103147;27;19998;-79
2023/03/31 12:00:40;;;;;;;;;;;;;;;10.34;100.00;98141.16;5093313;28;20371;-79
2023/03/31 12:03:16;;;;;;;;;;;;;;;10.38;100.00;98150.31;5077081;27;19916;-78
2023/03/31 12:05:48;;;;;;;;;;;;;;;10.40;100.00;98161.50;5077055;27;20320;-78
2023/03/31 12:08:33;;;;;;;;;;;;;;;10.38;100.00;98161.69;5094572;28;19919;-78
2023/03/31 12:11:08;;;;;;;;;;;;;;;10.35;100.00;98162.09;5108120;27;19944;-78
2023/03/31 12:13:41;;;;;;;;;;;;;;;10.27;100.00;98167.56;5110762;28;19922;-78
2023/03/31 12:16:13;;;;;;;;;;;;;;;10.22;100.00;98178.72;5088733;27;19919;-78
2023/03/31 12:19:03;;;;;;;;;;;;;;;10.22;100.00;98176.09;5112969;27;20119;-78
2023/03/31 12:21:35;;;;;;;;;;;;;;;10.24;100.00;98181.97;5060729;27;20000;-78
2023/03/31 12:24:04;;;;;;;;;;;;;;;10.28;100.00;98182.38;5114476;27;19975;-78
2023/03/31 12:26:44;;;;;;;;;;;;;;;10.35;100.00;98198.25;5107567;27;19965;-79
2023/03/31 12:29:34;;;;;;;;;;;;;;;10.41;100.00;98198.28;5104870;27;20010;-79
2023/03/31 12:32:11;;;;;;;;;;;;;;;10.30;100.00;98198.84;5104101;27;20015;-79
2023/03/31 12:34:57;;;;;;;;;;;;;;;10.36;100.00;98210.44;5116530;27;19924;-78
2023/03/31 12:37:35;;;;;;;;;;;;;;;10.27;100.00;98212.47;5091994;27;19954;-78
2023/03/31 12:40:19;;;;;;;;;;;;;;;10.25;100.00;98215.28;5084181;27;20323;-78
2023/03/31 12:43:04;;;;;;;;;;;;;;;10.25;100.00;98225.03;5096035;27;19922;-78
2023/03/31 12:45:40;;;;;;;;;;;;;;;10.24;100.00;98221.56;5106463;27;19919;-78
2023/03/31 12:48:29;;;;;;;;;;;;;;;10.34;100.00;98231.75;5112056;27;19922;-79
2023/03/31 12:51:09;;;;;;;;;;;;;;;10.41;100.00;98235.25;5112501;27;20331;-78
2023/03/31 12:53:49;;;;;;;;;;;;;;;10.48;100.00;98234.50;5077945;27;19916;-79
2023/03/31 12:56:20;;;;;;;;;;;;;;;10.58;100.00;98242.03;5124153;27;19920;-78
2023/03/31 12:58:50;;;;;;;;;;;;;;;10.65;100.00;98248.16;5107240;27;19973;-78
2023/03/31 13:01:24;;;;;;;;;;;;;;;10.59;100.00;98244.47;5102580;27;19922;-79
2023/03/31 13:04:17;;;;;;;;;;;;;;;10.52;100.00;98252.38;5105714;28;20273;-79
2023/03/31 13:06:49;;;;;;;;;;;;;;;10.56;100.00;98249.34;5091553;28;20426;-78
2023/03/31 13:09:17;;;;;;;;;;;;;;;10.53;100.00;98259.28;5066201;28;19922;-79
2023/03/31 13:11:48;;;;;;;;;;;;;;;10.54;100.00;98268.84;5083179;28;19916;-80